Latest Coastal Weather Observations for Point Stuart

IDD60701

Issued at 9:11 am CST Monday 27 February 2017 (issued every 10 minutes, with the page automatically refreshed every 10 minutes)

About coastal observations | Map of coastal stations | Coastal observations for NT | Marine services | Other Formats
Station Details ID: 014254 Name: POINT STUART Lat: -12.24 Lon: 131.88 Height: 1.0 m
Data from the previous 72 hours. | See also: Recent months at Point Stuart
Date/Time
CST
Temp
°C
Wind Pressure Rain since
9am
mm
Weather Cloud Vis
km
Sea
Height
m
Swell
Dir  Spd
kts
Gust
kts
hPa Trend Height
m
Period
s
Dir
27/09:00am 27.4 SSE 6 9 1009.4 - 36.2 - - - - - - -
27/08:30am 26.5 S 7 10 1009.4 - 36.2 - - - - - - -
27/08:00am 25.9 S 6 9 1009.0 - 36.2 - - - - - - -
27/07:30am 25.3 S 6 8 1008.5 - 36.2 - - - - - - -
27/07:00am 24.6 SSE 4 6 1008.2 - 36.2 - - - - - - -
27/06:30am 24.6 SSE 4 6 1007.8 - 36.0 - - - - - - -
27/06:00am 24.8 S 7 10 1007.3 - 36.0 - - - - - - -
27/05:30am 24.9 SSE 6 8 1007.1 - 36.0 - - - - - - -
27/05:00am 25.0 SSE 7 9 1006.9 - 36.0 - - - - - - -
27/04:30am 25.1 SSE 8 10 1006.8 - 36.0 - - - - - - -
27/04:00am 25.3 SSE 7 10 1007.1 - 36.0 - - - - - - -
27/03:30am 25.8 S 7 8 1007.4 - 36.0 - - - - - - -
27/03:00am 25.8 S 5 6 1007.6 - 36.0 - - - - - - -
27/02:30am 25.8 SE 5 6 1008.0 - 36.0 - - - - - - -
27/02:00am 26.0 SSE 4 5 1008.4 - 36.0 - - - - - - -
27/01:30am 26.0 ENE 3 6 1008.7 - 36.0 - - - - - - -
27/01:00am 25.7 CALM 0 0 1008.6 - 36.0 - - - - - - -
27/12:30am 25.5 NW 4 6 1008.7 - 36.0 - - - - - - -
27/12:00am 25.6 SSW 5 6 1009.4 - 35.6 - - - - - - -
 
Date/Time
CST
Temp
°C
Wind Pressure Rain since
9am
mm
Weather Cloud Vis
km
Sea
Height
m
Swell
Dir  Spd
kts
Gust
kts
hPa Trend Height
m
Period
s
Dir
26/11:30pm 25.6 S 4 5 1009.6 - 35.0 - - - - - - -
26/11:00pm 25.6 ESE 7 10 1009.8 - 34.2 - - - - - - -
26/10:30pm 25.8 SE 10 14 1009.9 - 33.6 - - - - - - -
26/10:00pm 26.4 SSE 5 6 1009.4 - 33.4 - - - - - - -
26/09:30pm 25.7 NNE 3 4 1008.6 - 32.4 - - - - - - -
26/09:00pm 25.4 NNW 4 6 1007.8 - 32.0 - - - - - - -
26/08:30pm 24.8 NNW 5 8 1007.7 - 31.6 - - - - - - -
26/08:00pm 24.2 N 6 12 1007.0 - 31.6 - - - - - - -
26/07:30pm 23.1 NNW 7 10 1006.4 - 31.0 - - - - - - -
26/07:14pm 23.6 NE 17 32 1007.3 - 24.6 - - - - - - -
26/07:11pm 23.9 E 22 35 1007.6 - 20.2 - - - - - - -
26/07:07pm 23.7 E 27 37 1007.5 - 14.2 - - - - - - -
26/07:00pm 24.7 SE 19 37 1007.0 - 3.0 - - - - - - -
26/06:30pm 29.1 SW 16 19 1006.0 - 0.0 - - - - - - -
26/06:00pm 31.6 NNW 10 15 1004.8 - 0.0 - - - - - - -
26/05:30pm 32.2 NNW 9 13 1004.7 - 0.0 - - - - - - -
26/05:00pm 32.5 NW 9 13 1004.6 - 0.0 - - - - - - -
26/04:30pm 33.2 NW 9 14 1004.8 - 0.0 - - - - - - -
26/04:00pm 32.9 NNW 6 10 1004.9 - 0.0 - - - - - - -
26/03:30pm 32.7 N 6 10 1004.8 - 0.0 - - - - - - -
26/03:00pm 33.9 N 5 8 1005.2 - 0.0 - - - - - - -
26/02:30pm 33.7 N 5 8 1005.5 - 0.0 - - - - - - -
26/02:00pm 33.8 W 4 7 1005.7 - 0.0 - - - - - - -
26/01:30pm 32.8 NNW 3 7 1006.0 - 0.0 - - - - - - -
26/01:00pm 33.3 SSW 4 7 1006.4 - 0.0 - - - - - - -
26/12:30pm 33.5 S 4 6 1006.7 - 0.0 - - - - - - -
26/12:00pm 33.0 SW 3 6 1007.2 - 0.0 - - - - - - -
26/11:30am 32.6 SSW 6 8 1007.6 - 0.0 - - - - - - -
26/11:00am 31.2 S 6 9 1008.1 - 0.0 - - - - - - -
26/10:30am 30.9 SSW 6 9 1008.2 - 0.0 - - - - - - -
26/10:00am 30.3 SSW 5 7 1008.3 - 0.0 - - - - - - -
26/09:30am 29.5 S 6 9 1008.6 - 0.0 - - - - - - -
26/09:00am 28.9 SSW 5 6 1008.7 - 0.0 - - - - - - -
26/08:30am 27.8 S 5 6 1008.2 - 0.0 - - - - - - -
26/08:00am 26.9 SSE 7 9 1008.3 - 0.0 - - - - - - -
26/07:30am 26.3 S 5 7 1008.4 - 0.0 - - - - - - -
26/07:00am 25.5 SSE 6 7 1008.2 - 0.0 - - - - - - -
26/06:30am 25.2 SSE 5 7 1007.9 - 0.0 - - - - - - -
26/06:00am 25.3 SSE 3 5 1007.9 - 0.0 - - - - - - -
26/05:30am 25.4 SSE 4 5 1007.5 - 0.0 - - - - - - -
26/05:00am 25.7 S 5 6 1007.4 - 0.0 - - - - - - -
26/04:30am 25.8 SSE 4 6 1007.4 - 0.0 - - - - - - -
26/04:00am 26.0 SSE 7 9 1008.0 - 0.0 - - - - - - -
26/03:30am 26.1 SSE 4 5 1008.0 - 0.0 - - - - - - -
26/03:00am 26.2 SE 3 5 1008.3 - 0.0 - - - - - - -
26/02:30am 26.4 SSE 3 4 1008.6 - 0.0 - - - - - - -
26/02:00am 26.1 SE 4 5 1008.7 - 0.0 - - - - - - -
26/01:30am 26.0 ESE 3 4 1008.9 - 0.0 - - - - - - -
26/01:00am 26.3 SE 4 6 1008.8 - 0.0 - - - - - - -
26/12:30am 26.7 SE 3 4 1009.3 - 0.0 - - - - - - -
26/12:00am 27.2 SE 7 9 1009.7 - 0.0 - - - - - - -
 
Date/Time
CST
Temp
°C
Wind Pressure Rain since
9am
mm
Weather Cloud Vis
km
Sea
Height
m
Swell
Dir  Spd
kts
Gust
kts
hPa Trend Height
m
Period
s
Dir
25/11:30pm 28.3 S 5 8 1009.6 - 0.0 - - - - - - -
25/11:00pm 28.3 SW 7 10 1009.4 - 0.0 - - - - - - -
25/10:30pm 28.8 W 9 12 1009.6 - 0.0 - - - - - - -
25/10:00pm 28.8 WNW 7 10 1009.2 - 0.0 - - - - - - -
25/09:30pm 28.5 NW 8 11 1009.4 - 0.0 - - - - - - -
25/09:00pm 28.5 NNW 6 9 1008.7 - 0.0 - - - - - - -
25/08:30pm 28.5 NNW 5 9 1008.6 - 0.0 - - - - - - -
25/08:00pm 29.0 NNW 5 7 1008.4 - 0.0 - - - - - - -
25/07:30pm 28.8 NNW 5 7 1008.1 - 0.0 - - - - - - -
25/07:00pm 29.2 NW 7 9 1007.6 - 0.0 - - - - - - -
25/06:30pm 30.0 NW 9 11 1007.4 - 0.0 - - - - - - -
25/06:00pm 30.8 NW 10 14 1006.7 - 0.0 - - - - - - -
25/05:30pm 31.4 NNW 8 11 1006.4 - 0.0 - - - - - - -
25/05:00pm 32.0 NNW 8 11 1006.8 - 0.0 - - - - - - -
25/04:30pm 31.9 NNW 7 11 1007.0 - 0.0 - - - - - - -
25/04:00pm 32.4 NW 9 13 1007.0 - 0.0 - - - - - - -
25/03:30pm 32.9 NW 9 12 1007.3 - 0.0 - - - - - - -
25/03:00pm 33.2 NNW 9 14 1007.4 - 0.0 - - - - - - -
25/02:30pm 33.3 NNW 8 13 1007.9 - 0.0 - - - - - - -
25/02:00pm 32.9 NNW 6 9 1008.2 - 0.0 - - - - - - -
25/01:30pm 32.5 NW 6 9 1008.8 - 0.0 - - - - - - -
25/01:00pm 32.0 N 4 7 1009.5 - 0.0 - - - - - - -
25/12:30pm 32.4 WSW 4 6 1009.9 - 0.0 - - - - - - -
25/12:00pm 32.1 N 2 5 1010.5 - 0.0 - - - - - - -
25/11:30am 31.1 N 4 6 1011.0 - 0.0 - - - - - - -
25/11:00am 31.1 CALM 0 3 1011.3 - 0.0 - - - - - - -
25/10:30am 31.2 SW 3 5 1011.5 - 0.0 - - - - - - -
25/10:00am 30.6 SSW 5 6 1011.6 - 0.0 - - - - - - -
25/09:30am 29.1 SSW 4 6 1011.8 - 0.0 - - - - - - -
25/09:00am 29.1 S 4 5 1011.6 - 0.2 - - - - - - -
25/08:30am 28.5 SSE 2 4 1011.1 - 0.2 - - - - - - -
25/08:00am 27.3 SSE 4 5 1010.8 - 0.2 - - - - - - -
25/07:30am 26.9 SSW 4 5 1010.5 - 0.2 - - - - - - -
25/07:00am 26.3 CALM 0 3 1010.2 - 0.2 - - - - - - -
25/06:30am 26.2 SE 3 5 1009.9 - 0.2 - - - - - - -
25/06:00am 26.3 SE 4 6 1009.9 - 0.2 - - - - - - -
25/05:30am 26.3 SE 3 5 1009.5 - 0.2 - - - - - - -
25/05:00am 26.5 CALM 0 3 1009.3 - 0.2 - - - - - - -
25/04:30am 26.3 E 3 4 1008.9 - 0.2 - - - - - - -
25/04:00am 26.4 ESE 2 4 1008.9 - 0.2 - - - - - - -
25/03:30am 26.5 CALM 0 0 1008.8 - 0.2 - - - - - - -
25/03:00am 26.6 CALM 0 0 1009.1 - 0.2 - - - - - - -
25/02:30am 26.7 CALM 0 0 1009.7 - 0.2 - - - - - - -
25/02:00am 26.6 CALM 0 0 1010.1 - 0.2 - - - - - - -
25/01:30am 26.7 CALM 0 0 1010.3 - 0.2 - - - - - - -
25/01:00am 26.9 W 4 5 1010.5 - 0.2 - - - - - - -
25/12:30am 27.3 WNW 5 6 1010.5 - 0.2 - - - - - - -
25/12:00am 27.4 NW 6 8 1010.6 - 0.2 - - - - - - -
 
Date/Time
CST
Temp
°C
Wind Pressure Rain since
9am
mm
Weather Cloud Vis
km
Sea
Height
m
Swell
Dir  Spd
kts
Gust
kts
hPa Trend Height
m
Period
s
Dir
24/11:30pm 27.5 NW 6 8 1010.6 - 0.2 - - - - - - -
24/11:00pm 27.9 WNW 6 7 1010.5 - 0.2 - - - - - - -
24/10:30pm 28.0 NNW 3 6 1009.8 - 0.2 - - - - - - -
24/10:00pm 28.1 NNW 4 7 1009.8 - 0.2 - - - - - - -
24/09:30pm 28.4 NNW 5 9 1009.8 - 0.2 - - - - - - -
24/09:00pm 28.5 NNW 5 7 1009.5 - 0.2 - - - - - - -
24/08:30pm 28.1 NNW 4 5 1009.4 - 0.2 - - - - - - -
24/08:00pm 28.2 N 3 4 1009.6 - 0.2 - - - - - - -
24/07:30pm 28.3 NNW 4 7 1009.3 - 0.2 - - - - - - -
24/07:00pm 29.0 NW 4 7 1009.3 - 0.2 - - - - - - -
24/06:30pm 30.1 NNW 6 9 1008.7 - 0.2 - - - - - - -
24/06:00pm 31.5 NNW 7 12 1008.5 - 0.2 - - - - - - -
24/05:30pm 32.4 NW 7 11 1008.4 - 0.2 - - - - - - -
24/05:00pm 31.9 NNW 5 9 1008.0 - 0.2 - - - - - - -
24/04:30pm 31.4 N 6 9 1008.2 - 0.2 - - - - - - -
24/04:00pm 32.2 NNW 6 11 1008.0 - 0.2 - - - - - - -
24/03:30pm 32.5 NNW 7 10 1007.9 - 0.2 - - - - - - -
24/03:00pm 32.6 NW 6 9 1008.3 - 0.2 - - - - - - -
24/02:30pm 32.6 W 5 7 1008.8 - 0.2 - - - - - - -
24/02:00pm 32.5 NW 7 10 1009.2 - 0.2 - - - - - - -
24/01:30pm 32.0 NW 6 9 1009.6 - 0.2 - - - - - - -
24/01:00pm 31.9 NW 6 9 1010.2 - 0.2 - - - - - - -
24/12:30pm 32.3 NW 6 9 1010.8 - 0.2 - - - - - - -
24/12:00pm 31.7 NW 7 9 1011.0 - 0.2 - - - - - - -
24/11:30am 30.6 NW 7 10 1011.1 - 0.2 - - - - - - -
24/11:00am 31.2 NW 6 9 1011.3 - 0.2 - - - - - - -
24/10:30am 29.5 NNE 3 6 1011.6 - 0.0 - - - - - - -
24/10:00am 27.5 E 4 5 1011.4 - 0.0 - - - - - - -
24/09:30am 26.2 ESE 3 5 1011.4 - 0.0 - - - - - - -

Other Formats:

Comma delimited format used in spreadsheet applications
http://www.bom.gov.au/fwo/IDD60701/IDD60701.94127.axf

JavaScript Object Notation format (JSON) in row-major order
http://www.bom.gov.au/fwo/IDD60701/IDD60701.94127.json